sensor_id;sensor_type;location;lat;lon;timestamp;P1;durP1;ratioP1;P2;durP2;ratioP2
44985;SDS011;30721;49.380;7.736;2023-05-27T00:00:55;6.78;;;2.25;;
44985;SDS011;30721;49.380;7.736;2023-05-27T00:03:21;7.30;;;2.00;;
44985;SDS011;30721;49.380;7.736;2023-05-27T00:05:48;5.97;;;2.33;;
44985;SDS011;30721;49.380;7.736;2023-05-27T00:08:14;6.30;;;2.42;;
44985;SDS011;30721;49.380;7.736;2023-05-27T00:10:39;7.55;;;2.42;;
44985;SDS011;30721;49.380;7.736;2023-05-27T00:13:05;6.82;;;2.28;;
44985;SDS011;30721;49.380;7.736;2023-05-27T00:15:30;7.18;;;3.35;;
44985;SDS011;30721;49.380;7.736;2023-05-27T00:17:57;7.50;;;2.00;;
44985;SDS011;30721;49.380;7.736;2023-05-27T00:20:27;10.75;;;2.78;;
44985;SDS011;30721;49.380;7.736;2023-05-27T00:22:55;6.75;;;2.50;;
44985;SDS011;30721;49.380;7.736;2023-05-27T00:25:21;6.70;;;2.75;;
44985;SDS011;30721;49.380;7.736;2023-05-27T00:27:48;8.98;;;2.50;;
44985;SDS011;30721;49.380;7.736;2023-05-27T00:30:14;6.50;;;2.10;;
44985;SDS011;30721;49.380;7.736;2023-05-27T00:32:42;7.38;;;2.67;;
44985;SDS011;30721;49.380;7.736;2023-05-27T00:35:08;7.15;;;2.47;;
44985;SDS011;30721;49.380;7.736;2023-05-27T00:37:34;5.78;;;2.22;;
44985;SDS011;30721;49.380;7.736;2023-05-27T00:40:00;7.50;;;2.60;;
44985;SDS011;30721;49.380;7.736;2023-05-27T00:42:25;8.25;;;2.35;;
44985;SDS011;30721;49.380;7.736;2023-05-27T00:44:51;6.43;;;2.10;;
44985;SDS011;30721;49.380;7.736;2023-05-27T00:47:17;5.75;;;2.10;;
44985;SDS011;30721;49.380;7.736;2023-05-27T00:49:43;8.40;;;2.70;;
44985;SDS011;30721;49.380;7.736;2023-05-27T00:52:09;8.93;;;2.20;;
44985;SDS011;30721;49.380;7.736;2023-05-27T00:54:35;6.90;;;2.42;;
44985;SDS011;30721;49.380;7.736;2023-05-27T00:57:00;6.65;;;2.75;;
44985;SDS011;30721;49.380;7.736;2023-05-27T00:59:27;6.20;;;2.40;;
44985;SDS011;30721;49.380;7.736;2023-05-27T01:01:53;7.55;;;3.05;;
44985;SDS011;30721;49.380;7.736;2023-05-27T01:04:20;7.63;;;2.15;;
44985;SDS011;30721;49.380;7.736;2023-05-27T01:06:58;5.95;;;2.15;;
44985;SDS011;30721;49.380;7.736;2023-05-27T01:10:15;7.63;;;2.55;;
44985;SDS011;30721;49.380;7.736;2023-05-27T01:15:12;9.85;;;2.65;;
44985;SDS011;30721;49.380;7.736;2023-05-27T01:17:38;5.50;;;2.17;;
44985;SDS011;30721;49.380;7.736;2023-05-27T01:20:08;7.95;;;2.60;;
44985;SDS011;30721;49.380;7.736;2023-05-27T01:22:35;5.03;;;2.40;;
44985;SDS011;30721;49.380;7.736;2023-05-27T01:25:01;9.05;;;2.72;;
44985;SDS011;30721;49.380;7.736;2023-05-27T01:27:28;7.85;;;2.50;;
44985;SDS011;30721;49.380;7.736;2023-05-27T01:29:53;10.60;;;2.58;;
44985;SDS011;30721;49.380;7.736;2023-05-27T01:32:22;7.90;;;2.92;;
44985;SDS011;30721;49.380;7.736;2023-05-27T01:34:59;7.82;;;2.50;;
44985;SDS011;30721;49.380;7.736;2023-05-27T01:37:29;7.05;;;2.72;;
44985;SDS011;30721;49.380;7.736;2023-05-27T01:39:59;8.38;;;2.30;;
44985;SDS011;30721;49.380;7.736;2023-05-27T01:42:24;8.27;;;3.42;;
44985;SDS011;30721;49.380;7.736;2023-05-27T01:44:50;10.02;;;2.55;;
44985;SDS011;30721;49.380;7.736;2023-05-27T01:47:17;5.93;;;2.05;;
44985;SDS011;30721;49.380;7.736;2023-05-27T01:49:42;9.93;;;3.15;;
44985;SDS011;30721;49.380;7.736;2023-05-27T01:52:08;7.72;;;2.60;;
44985;SDS011;30721;49.380;7.736;2023-05-27T01:54:34;7.32;;;2.55;;
44985;SDS011;30721;49.380;7.736;2023-05-27T01:56:59;6.50;;;2.25;;
44985;SDS011;30721;49.380;7.736;2023-05-27T01:59:25;9.25;;;3.05;;
44985;SDS011;30721;49.380;7.736;2023-05-27T02:01:51;8.82;;;3.33;;
44985;SDS011;30721;49.380;7.736;2023-05-27T02:04:17;7.10;;;3.10;;
44985;SDS011;30721;49.380;7.736;2023-05-27T02:06:42;7.38;;;2.58;;
44985;SDS011;30721;49.380;7.736;2023-05-27T02:09:08;8.85;;;2.97;;
44985;SDS011;30721;49.380;7.736;2023-05-27T02:11:36;8.40;;;2.38;;
44985;SDS011;30721;49.380;7.736;2023-05-27T02:14:01;6.65;;;3.53;;
44985;SDS011;30721;49.380;7.736;2023-05-27T02:16:27;7.57;;;2.97;;
44985;SDS011;30721;49.380;7.736;2023-05-27T02:18:53;6.95;;;2.70;;
44985;SDS011;30721;49.380;7.736;2023-05-27T02:21:19;9.38;;;2.83;;
44985;SDS011;30721;49.380;7.736;2023-05-27T02:23:45;6.95;;;2.47;;
44985;SDS011;30721;49.380;7.736;2023-05-27T02:26:10;12.18;;;3.28;;
44985;SDS011;30721;49.380;7.736;2023-05-27T02:28:35;8.23;;;2.78;;
44985;SDS011;30721;49.380;7.736;2023-05-27T02:31:01;5.70;;;2.53;;
44985;SDS011;30721;49.380;7.736;2023-05-27T02:33:27;9.90;;;2.60;;
44985;SDS011;30721;49.380;7.736;2023-05-27T02:35:52;7.10;;;2.67;;
44985;SDS011;30721;49.380;7.736;2023-05-27T02:38:18;8.10;;;2.30;;
44985;SDS011;30721;49.380;7.736;2023-05-27T02:40:43;8.60;;;2.95;;
44985;SDS011;30721;49.380;7.736;2023-05-27T02:43:09;8.90;;;2.60;;
44985;SDS011;30721;49.380;7.736;2023-05-27T02:45:34;8.27;;;2.92;;
44985;SDS011;30721;49.380;7.736;2023-05-27T02:47:59;9.98;;;2.35;;
44985;SDS011;30721;49.380;7.736;2023-05-27T02:50:28;9.60;;;2.50;;
44985;SDS011;30721;49.380;7.736;2023-05-27T02:52:53;8.73;;;2.53;;
44985;SDS011;30721;49.380;7.736;2023-05-27T02:55:20;8.60;;;2.85;;
44985;SDS011;30721;49.380;7.736;2023-05-27T02:57:45;6.95;;;2.50;;
44985;SDS011;30721;49.380;7.736;2023-05-27T03:00:12;7.57;;;2.80;;
44985;SDS011;30721;49.380;7.736;2023-05-27T03:02:38;8.15;;;2.67;;
44985;SDS011;30721;49.380;7.736;2023-05-27T03:05:04;10.30;;;3.13;;
44985;SDS011;30721;49.380;7.736;2023-05-27T03:07:33;8.85;;;2.45;;
44985;SDS011;30721;49.380;7.736;2023-05-27T03:09:58;10.77;;;3.58;;
44985;SDS011;30721;49.380;7.736;2023-05-27T03:12:23;6.45;;;2.92;;
44985;SDS011;30721;49.380;7.736;2023-05-27T03:14:50;9.57;;;2.83;;
44985;SDS011;30721;49.380;7.736;2023-05-27T03:17:16;7.47;;;2.60;;
44985;SDS011;30721;49.380;7.736;2023-05-27T03:19:42;9.30;;;2.88;;
44985;SDS011;30721;49.380;7.736;2023-05-27T03:22:08;8.07;;;2.50;;
44985;SDS011;30721;49.380;7.736;2023-05-27T03:24:54;6.75;;;2.40;;
44985;SDS011;30721;49.380;7.736;2023-05-27T03:27:20;6.85;;;2.40;;
44985;SDS011;30721;49.380;7.736;2023-05-27T03:29:45;6.50;;;2.38;;
44985;SDS011;30721;49.380;7.736;2023-05-27T03:32:11;6.65;;;3.28;;
44985;SDS011;30721;49.380;7.736;2023-05-27T03:34:37;9.43;;;2.80;;
44985;SDS011;30721;49.380;7.736;2023-05-27T03:37:03;7.20;;;2.53;;
44985;SDS011;30721;49.380;7.736;2023-05-27T03:39:28;9.10;;;3.17;;
44985;SDS011;30721;49.380;7.736;2023-05-27T03:41:54;9.60;;;3.15;;
44985;SDS011;30721;49.380;7.736;2023-05-27T03:44:19;7.78;;;2.35;;
44985;SDS011;30721;49.380;7.736;2023-05-27T03:46:45;9.70;;;2.92;;
44985;SDS011;30721;49.380;7.736;2023-05-27T03:49:10;8.50;;;2.90;;
44985;SDS011;30721;49.380;7.736;2023-05-27T03:51:36;10.30;;;2.85;;
44985;SDS011;30721;49.380;7.736;2023-05-27T03:54:01;6.90;;;2.42;;
44985;SDS011;30721;49.380;7.736;2023-05-27T03:56:27;6.47;;;2.25;;
44985;SDS011;30721;49.380;7.736;2023-05-27T03:58:52;12.48;;;3.97;;
44985;SDS011;30721;49.380;7.736;2023-05-27T04:01:18;7.03;;;2.83;;
44985;SDS011;30721;49.380;7.736;2023-05-27T04:03:45;9.45;;;2.78;;
44985;SDS011;30721;49.380;7.736;2023-05-27T04:06:11;7.50;;;2.78;;
44985;SDS011;30721;49.380;7.736;2023-05-27T04:08:36;9.40;;;2.70;;
44985;SDS011;30721;49.380;7.736;2023-05-27T04:11:04;10.65;;;2.60;;
44985;SDS011;30721;49.380;7.736;2023-05-27T04:13:29;9.77;;;2.40;;
44985;SDS011;30721;49.380;7.736;2023-05-27T04:15:55;5.07;;;2.33;;
44985;SDS011;30721;49.380;7.736;2023-05-27T04:18:22;9.80;;;2.45;;
44985;SDS011;30721;49.380;7.736;2023-05-27T04:20:47;9.63;;;3.30;;
44985;SDS011;30721;49.380;7.736;2023-05-27T04:23:15;8.90;;;3.08;;
44985;SDS011;30721;49.380;7.736;2023-05-27T04:25:41;10.60;;;2.55;;
44985;SDS011;30721;49.380;7.736;2023-05-27T04:28:07;5.93;;;3.20;;
44985;SDS011;30721;49.380;7.736;2023-05-27T04:30:34;9.45;;;2.97;;
44985;SDS011;30721;49.380;7.736;2023-05-27T04:33:00;8.23;;;2.53;;
44985;SDS011;30721;49.380;7.736;2023-05-27T04:35:26;9.05;;;2.90;;
44985;SDS011;30721;49.380;7.736;2023-05-27T04:37:51;8.15;;;2.97;;
44985;SDS011;30721;49.380;7.736;2023-05-27T04:40:17;6.40;;;2.53;;
44985;SDS011;30721;49.380;7.736;2023-05-27T04:42:42;9.95;;;3.42;;
44985;SDS011;30721;49.380;7.736;2023-05-27T04:45:09;7.15;;;3.22;;
44985;SDS011;30721;49.380;7.736;2023-05-27T04:47:38;10.05;;;3.00;;
44985;SDS011;30721;49.380;7.736;2023-05-27T04:50:06;9.50;;;2.75;;
44985;SDS011;30721;49.380;7.736;2023-05-27T04:52:33;7.78;;;3.58;;
44985;SDS011;30721;49.380;7.736;2023-05-27T04:55:05;8.63;;;2.40;;
44985;SDS011;30721;49.380;7.736;2023-05-27T04:57:32;8.95;;;3.10;;
44985;SDS011;30721;49.380;7.736;2023-05-27T04:59:58;8.23;;;2.85;;
44985;SDS011;30721;49.380;7.736;2023-05-27T05:02:43;9.70;;;3.42;;
44985;SDS011;30721;49.380;7.736;2023-05-27T05:05:11;7.97;;;3.15;;
44985;SDS011;30721;49.380;7.736;2023-05-27T05:07:37;8.38;;;3.10;;
44985;SDS011;30721;49.380;7.736;2023-05-27T05:10:06;7.47;;;2.80;;
44985;SDS011;30721;49.380;7.736;2023-05-27T05:12:33;6.80;;;2.83;;
44985;SDS011;30721;49.380;7.736;2023-05-27T05:14:59;7.28;;;2.83;;
44985;SDS011;30721;49.380;7.736;2023-05-27T05:17:25;9.48;;;3.40;;
44985;SDS011;30721;49.380;7.736;2023-05-27T05:19:53;9.40;;;2.55;;
44985;SDS011;30721;49.380;7.736;2023-05-27T05:22:19;8.52;;;2.67;;
44985;SDS011;30721;49.380;7.736;2023-05-27T05:24:46;6.78;;;2.88;;
44985;SDS011;30721;49.380;7.736;2023-05-27T05:27:11;6.25;;;2.30;;
44985;SDS011;30721;49.380;7.736;2023-05-27T05:29:38;7.78;;;3.00;;
44985;SDS011;30721;49.380;7.736;2023-05-27T05:32:04;7.10;;;3.05;;
44985;SDS011;30721;49.380;7.736;2023-05-27T05:34:29;6.68;;;2.67;;
44985;SDS011;30721;49.380;7.736;2023-05-27T05:36:55;8.57;;;2.22;;
44985;SDS011;30721;49.380;7.736;2023-05-27T05:39:20;5.57;;;2.35;;
44985;SDS011;30721;49.380;7.736;2023-05-27T05:41:46;6.88;;;2.53;;
44985;SDS011;30721;49.380;7.736;2023-05-27T05:44:12;7.95;;;2.67;;
44985;SDS011;30721;49.380;7.736;2023-05-27T05:46:37;9.85;;;2.80;;
44985;SDS011;30721;49.380;7.736;2023-05-27T05:49:03;10.60;;;2.58;;
44985;SDS011;30721;49.380;7.736;2023-05-27T05:51:28;7.65;;;2.20;;
44985;SDS011;30721;49.380;7.736;2023-05-27T05:53:54;6.88;;;2.72;;
44985;SDS011;30721;49.380;7.736;2023-05-27T05:56:19;8.20;;;2.75;;
44985;SDS011;30721;49.380;7.736;2023-05-27T05:58:45;10.10;;;2.60;;
44985;SDS011;30721;49.380;7.736;2023-05-27T06:01:10;6.75;;;2.45;;
44985;SDS011;30721;49.380;7.736;2023-05-27T06:03:36;8.15;;;2.70;;
44985;SDS011;30721;49.380;7.736;2023-05-27T06:06:02;8.43;;;2.72;;
44985;SDS011;30721;49.380;7.736;2023-05-27T06:08:27;5.78;;;3.13;;
44985;SDS011;30721;49.380;7.736;2023-05-27T06:10:53;7.50;;;2.47;;
44985;SDS011;30721;49.380;7.736;2023-05-27T06:13:19;6.78;;;2.38;;
44985;SDS011;30721;49.380;7.736;2023-05-27T06:15:44;7.28;;;3.10;;
44985;SDS011;30721;49.380;7.736;2023-05-27T06:18:10;5.38;;;2.67;;
44985;SDS011;30721;49.380;7.736;2023-05-27T06:20:35;7.55;;;2.70;;
44985;SDS011;30721;49.380;7.736;2023-05-27T06:23:01;7.03;;;2.33;;
44985;SDS011;30721;49.380;7.736;2023-05-27T06:25:26;6.50;;;2.50;;
44985;SDS011;30721;49.380;7.736;2023-05-27T06:27:52;6.13;;;2.80;;
44985;SDS011;30721;49.380;7.736;2023-05-27T06:30:17;8.98;;;2.88;;
44985;SDS011;30721;49.380;7.736;2023-05-27T06:32:43;7.38;;;2.20;;
44985;SDS011;30721;49.380;7.736;2023-05-27T06:35:08;5.68;;;2.83;;
44985;SDS011;30721;49.380;7.736;2023-05-27T06:37:34;9.68;;;2.40;;
44985;SDS011;30721;49.380;7.736;2023-05-27T06:39:59;6.00;;;2.80;;
44985;SDS011;30721;49.380;7.736;2023-05-27T06:42:25;9.93;;;2.90;;
44985;SDS011;30721;49.380;7.736;2023-05-27T06:44:52;7.00;;;2.92;;
44985;SDS011;30721;49.380;7.736;2023-05-27T06:47:17;8.75;;;2.80;;
44985;SDS011;30721;49.380;7.736;2023-05-27T06:49:43;6.60;;;2.17;;
44985;SDS011;30721;49.380;7.736;2023-05-27T06:52:09;5.25;;;2.28;;
44985;SDS011;30721;49.380;7.736;2023-05-27T06:54:35;7.05;;;2.50;;
44985;SDS011;30721;49.380;7.736;2023-05-27T06:57:01;7.82;;;2.47;;
44985;SDS011;30721;49.380;7.736;2023-05-27T06:59:28;6.68;;;2.72;;
44985;SDS011;30721;49.380;7.736;2023-05-27T07:01:55;7.18;;;2.30;;
44985;SDS011;30721;49.380;7.736;2023-05-27T07:04:24;7.10;;;2.35;;
44985;SDS011;30721;49.380;7.736;2023-05-27T07:06:49;7.43;;;2.70;;
44985;SDS011;30721;49.380;7.736;2023-05-27T07:09:15;7.78;;;2.67;;
44985;SDS011;30721;49.380;7.736;2023-05-27T07:11:41;6.43;;;2.28;;
44985;SDS011;30721;49.380;7.736;2023-05-27T07:14:06;6.68;;;2.50;;
44985;SDS011;30721;49.380;7.736;2023-05-27T07:16:34;7.90;;;2.67;;
44985;SDS011;30721;49.380;7.736;2023-05-27T07:19:00;6.43;;;2.63;;
44985;SDS011;30721;49.380;7.736;2023-05-27T07:21:25;6.50;;;1.98;;
44985;SDS011;30721;49.380;7.736;2023-05-27T07:23:51;7.65;;;2.90;;
44985;SDS011;30721;49.380;7.736;2023-05-27T07:26:16;8.50;;;2.83;;
44985;SDS011;30721;49.380;7.736;2023-05-27T07:28:42;7.15;;;2.90;;
44985;SDS011;30721;49.380;7.736;2023-05-27T07:31:07;5.93;;;2.58;;
44985;SDS011;30721;49.380;7.736;2023-05-27T07:33:32;8.23;;;2.55;;
44985;SDS011;30721;49.380;7.736;2023-05-27T07:35:58;6.85;;;2.28;;
44985;SDS011;30721;49.380;7.736;2023-05-27T07:38:23;7.60;;;2.65;;
44985;SDS011;30721;49.380;7.736;2023-05-27T07:40:49;6.35;;;2.50;;
44985;SDS011;30721;49.380;7.736;2023-05-27T07:43:14;7.57;;;2.33;;
44985;SDS011;30721;49.380;7.736;2023-05-27T07:45:40;5.30;;;2.35;;
44985;SDS011;30721;49.380;7.736;2023-05-27T07:48:05;5.88;;;2.72;;
44985;SDS011;30721;49.380;7.736;2023-05-27T07:50:31;8.18;;;2.83;;
44985;SDS011;30721;49.380;7.736;2023-05-27T07:52:56;6.10;;;2.53;;
44985;SDS011;30721;49.380;7.736;2023-05-27T07:55:22;5.60;;;2.33;;
44985;SDS011;30721;49.380;7.736;2023-05-27T07:57:47;5.97;;;2.22;;
44985;SDS011;30721;49.380;7.736;2023-05-27T08:00:13;6.07;;;2.50;;
44985;SDS011;30721;49.380;7.736;2023-05-27T08:02:38;7.55;;;2.58;;
44985;SDS011;30721;49.380;7.736;2023-05-27T08:05:04;6.72;;;2.60;;
44985;SDS011;30721;49.380;7.736;2023-05-27T08:07:30;5.40;;;2.72;;
44985;SDS011;30721;49.380;7.736;2023-05-27T08:09:55;7.68;;;2.78;;
44985;SDS011;30721;49.380;7.736;2023-05-27T08:12:21;7.32;;;2.85;;
44985;SDS011;30721;49.380;7.736;2023-05-27T08:14:48;8.00;;;2.88;;
44985;SDS011;30721;49.380;7.736;2023-05-27T08:17:14;8.02;;;2.45;;
44985;SDS011;30721;49.380;7.736;2023-05-27T08:19:39;9.48;;;2.60;;
44985;SDS011;30721;49.380;7.736;2023-05-27T08:22:05;8.65;;;2.80;;
44985;SDS011;30721;49.380;7.736;2023-05-27T08:24:34;7.22;;;2.78;;
44985;SDS011;30721;49.380;7.736;2023-05-27T08:26:59;9.18;;;3.20;;
44985;SDS011;30721;49.380;7.736;2023-05-27T08:29:25;5.25;;;2.75;;
44985;SDS011;30721;49.380;7.736;2023-05-27T08:31:52;5.75;;;2.60;;
44985;SDS011;30721;49.380;7.736;2023-05-27T08:34:18;6.90;;;2.65;;
44985;SDS011;30721;49.380;7.736;2023-05-27T08:36:44;9.07;;;2.60;;
44985;SDS011;30721;49.380;7.736;2023-05-27T08:39:09;8.32;;;3.30;;
44985;SDS011;30721;49.380;7.736;2023-05-27T08:41:35;7.72;;;2.97;;
44985;SDS011;30721;49.380;7.736;2023-05-27T08:44:01;8.18;;;3.10;;
44985;SDS011;30721;49.380;7.736;2023-05-27T08:46:27;5.72;;;2.70;;
44985;SDS011;30721;49.380;7.736;2023-05-27T08:48:53;6.10;;;2.97;;
44985;SDS011;30721;49.380;7.736;2023-05-27T08:51:20;6.57;;;2.67;;
44985;SDS011;30721;49.380;7.736;2023-05-27T08:53:47;7.32;;;2.72;;
44985;SDS011;30721;49.380;7.736;2023-05-27T08:56:14;6.35;;;2.53;;
44985;SDS011;30721;49.380;7.736;2023-05-27T08:58:40;5.13;;;2.70;;
44985;SDS011;30721;49.380;7.736;2023-05-27T09:01:07;5.90;;;2.97;;
44985;SDS011;30721;49.380;7.736;2023-05-27T09:03:33;6.03;;;2.80;;
44985;SDS011;30721;49.380;7.736;2023-05-27T09:05:59;8.68;;;3.13;;
44985;SDS011;30721;49.380;7.736;2023-05-27T09:08:28;7.00;;;3.17;;
44985;SDS011;30721;49.380;7.736;2023-05-27T09:10:53;6.40;;;2.55;;
44985;SDS011;30721;49.380;7.736;2023-05-27T09:13:26;8.57;;;3.28;;
44985;SDS011;30721;49.380;7.736;2023-05-27T09:15:58;7.82;;;3.03;;
44985;SDS011;30721;49.380;7.736;2023-05-27T09:18:29;7.45;;;3.20;;
44985;SDS011;30721;49.380;7.736;2023-05-27T09:20:56;5.88;;;2.67;;
44985;SDS011;30721;49.380;7.736;2023-05-27T09:23:22;5.93;;;3.35;;
44985;SDS011;30721;49.380;7.736;2023-05-27T09:25:47;6.43;;;2.90;;
44985;SDS011;30721;49.380;7.736;2023-05-27T09:28:20;6.85;;;3.13;;
44985;SDS011;30721;49.380;7.736;2023-05-27T09:30:46;9.10;;;3.05;;
44985;SDS011;30721;49.380;7.736;2023-05-27T09:33:12;8.10;;;3.08;;
44985;SDS011;30721;49.380;7.736;2023-05-27T09:35:38;5.25;;;2.75;;
44985;SDS011;30721;49.380;7.736;2023-05-27T09:38:08;10.50;;;3.20;;
44985;SDS011;30721;49.380;7.736;2023-05-27T09:40:35;7.75;;;3.42;;
44985;SDS011;30721;49.380;7.736;2023-05-27T09:43:02;8.77;;;3.97;;
44985;SDS011;30721;49.380;7.736;2023-05-27T09:45:28;6.40;;;3.22;;
44985;SDS011;30721;49.380;7.736;2023-05-27T09:47:53;7.43;;;2.90;;
44985;SDS011;30721;49.380;7.736;2023-05-27T09:50:20;5.90;;;3.40;;
44985;SDS011;30721;49.380;7.736;2023-05-27T09:52:46;6.10;;;3.05;;
44985;SDS011;30721;49.380;7.736;2023-05-27T09:55:13;6.35;;;3.38;;
44985;SDS011;30721;49.380;7.736;2023-05-27T09:57:39;7.35;;;3.53;;
44985;SDS011;30721;49.380;7.736;2023-05-27T10:00:06;6.97;;;3.15;;
44985;SDS011;30721;49.380;7.736;2023-05-27T10:02:36;7.10;;;3.40;;
44985;SDS011;30721;49.380;7.736;2023-05-27T10:05:03;6.55;;;2.85;;
44985;SDS011;30721;49.380;7.736;2023-05-27T10:07:34;6.93;;;3.38;;
44985;SDS011;30721;49.380;7.736;2023-05-27T10:10:01;6.07;;;2.88;;
44985;SDS011;30721;49.380;7.736;2023-05-27T10:12:27;7.40;;;3.15;;
44985;SDS011;30721;49.380;7.736;2023-05-27T10:14:53;6.65;;;3.50;;
44985;SDS011;30721;49.380;7.736;2023-05-27T10:17:20;6.50;;;3.45;;
44985;SDS011;30721;49.380;7.736;2023-05-27T10:19:55;7.32;;;3.35;;
44985;SDS011;30721;49.380;7.736;2023-05-27T10:22:21;4.95;;;3.67;;
44985;SDS011;30721;49.380;7.736;2023-05-27T10:24:47;5.85;;;3.78;;
44985;SDS011;30721;49.380;7.736;2023-05-27T10:27:18;8.18;;;4.32;;
44985;SDS011;30721;49.380;7.736;2023-05-27T10:29:44;8.38;;;4.32;;
44985;SDS011;30721;49.380;7.736;2023-05-27T10:32:09;4.95;;;3.60;;
44985;SDS011;30721;49.380;7.736;2023-05-27T10:34:41;6.35;;;3.75;;
44985;SDS011;30721;49.380;7.736;2023-05-27T10:37:07;7.20;;;4.50;;
44985;SDS011;30721;49.380;7.736;2023-05-27T10:39:34;7.70;;;3.90;;
44985;SDS011;30721;49.380;7.736;2023-05-27T10:42:00;5.10;;;3.80;;
44985;SDS011;30721;49.380;7.736;2023-05-27T10:47:08;8.23;;;3.97;;
44985;SDS011;30721;49.380;7.736;2023-05-27T10:49:36;6.97;;;4.00;;
44985;SDS011;30721;49.380;7.736;2023-05-27T10:52:15;8.20;;;4.20;;
44985;SDS011;30721;49.380;7.736;2023-05-27T10:54:45;6.47;;;4.35;;
44985;SDS011;30721;49.380;7.736;2023-05-27T10:57:12;10.15;;;4.78;;
44985;SDS011;30721;49.380;7.736;2023-05-27T11:02:19;6.68;;;3.97;;
44985;SDS011;30721;49.380;7.736;2023-05-27T11:04:45;6.18;;;4.10;;
44985;SDS011;30721;49.380;7.736;2023-05-27T11:07:11;6.85;;;4.70;;
44985;SDS011;30721;49.380;7.736;2023-05-27T11:09:53;6.63;;;4.15;;
44985;SDS011;30721;49.380;7.736;2023-05-27T11:12:23;7.15;;;4.30;;
44985;SDS011;30721;49.380;7.736;2023-05-27T11:14:53;5.53;;;3.88;;
44985;SDS011;30721;49.380;7.736;2023-05-27T11:17:20;6.05;;;3.80;;
44985;SDS011;30721;49.380;7.736;2023-05-27T11:19:46;8.48;;;4.65;;
44985;SDS011;30721;49.380;7.736;2023-05-27T11:22:13;7.85;;;4.15;;
44985;SDS011;30721;49.380;7.736;2023-05-27T11:24:39;6.50;;;4.32;;
44985;SDS011;30721;49.380;7.736;2023-05-27T11:27:12;8.20;;;4.50;;
44985;SDS011;30721;49.380;7.736;2023-05-27T11:29:39;7.28;;;4.05;;
44985;SDS011;30721;49.380;7.736;2023-05-27T11:32:06;5.75;;;4.10;;
44985;SDS011;30721;49.380;7.736;2023-05-27T11:34:35;6.20;;;4.65;;
44985;SDS011;30721;49.380;7.736;2023-05-27T11:37:01;5.30;;;4.38;;
44985;SDS011;30721;49.380;7.736;2023-05-27T11:39:30;6.93;;;4.75;;
44985;SDS011;30721;49.380;7.736;2023-05-27T11:41:57;6.90;;;4.80;;
44985;SDS011;30721;49.380;7.736;2023-05-27T11:44:25;5.20;;;4.70;;
44985;SDS011;30721;49.380;7.736;2023-05-27T11:46:51;7.32;;;5.00;;
44985;SDS011;30721;49.380;7.736;2023-05-27T11:49:18;6.70;;;4.63;;
44985;SDS011;30721;49.380;7.736;2023-05-27T11:51:47;6.15;;;4.15;;
44985;SDS011;30721;49.380;7.736;2023-05-27T11:54:18;7.53;;;4.72;;
44985;SDS011;30721;49.380;7.736;2023-05-27T11:56:46;4.90;;;4.03;;
44985;SDS011;30721;49.380;7.736;2023-05-27T11:59:12;6.70;;;4.95;;
44985;SDS011;30721;49.380;7.736;2023-05-27T12:01:39;7.03;;;4.55;;
44985;SDS011;30721;49.380;7.736;2023-05-27T12:04:05;7.22;;;4.70;;
44985;SDS011;30721;49.380;7.736;2023-05-27T12:06:31;7.03;;;5.22;;
44985;SDS011;30721;49.380;7.736;2023-05-27T12:08:56;8.02;;;5.32;;
44985;SDS011;30721;49.380;7.736;2023-05-27T12:11:22;6.03;;;4.88;;
44985;SDS011;30721;49.380;7.736;2023-05-27T12:13:49;7.93;;;5.22;;
44985;SDS011;30721;49.380;7.736;2023-05-27T12:16:16;5.97;;;5.10;;
44985;SDS011;30721;49.380;7.736;2023-05-27T12:18:41;7.82;;;4.88;;
44985;SDS011;30721;49.380;7.736;2023-05-27T12:21:07;7.93;;;4.50;;
44985;SDS011;30721;49.380;7.736;2023-05-27T12:23:33;7.47;;;4.60;;
44985;SDS011;30721;49.380;7.736;2023-05-27T12:25:59;7.25;;;4.55;;
44985;SDS011;30721;49.380;7.736;2023-05-27T12:28:25;7.35;;;4.85;;
44985;SDS011;30721;49.380;7.736;2023-05-27T12:30:51;7.75;;;5.20;;
44985;SDS011;30721;49.380;7.736;2023-05-27T12:33:16;6.38;;;5.13;;
44985;SDS011;30721;49.380;7.736;2023-05-27T12:35:42;7.10;;;4.85;;
44985;SDS011;30721;49.380;7.736;2023-05-27T12:38:07;8.15;;;5.53;;
44985;SDS011;30721;49.380;7.736;2023-05-27T12:40:33;7.28;;;4.90;;
44985;SDS011;30721;49.380;7.736;2023-05-27T12:42:58;6.72;;;4.88;;
44985;SDS011;30721;49.380;7.736;2023-05-27T12:45:24;6.25;;;4.65;;
44985;SDS011;30721;49.380;7.736;2023-05-27T12:47:54;8.25;;;4.82;;
44985;SDS011;30721;49.380;7.736;2023-05-27T12:50:20;8.70;;;5.45;;
44985;SDS011;30721;49.380;7.736;2023-05-27T12:52:47;8.45;;;4.90;;
44985;SDS011;30721;49.380;7.736;2023-05-27T12:55:17;7.80;;;4.90;;
44985;SDS011;30721;49.380;7.736;2023-05-27T12:57:44;8.52;;;5.15;;
44985;SDS011;30721;49.380;7.736;2023-05-27T13:00:13;7.88;;;4.80;;
44985;SDS011;30721;49.380;7.736;2023-05-27T13:02:39;7.95;;;4.95;;
44985;SDS011;30721;49.380;7.736;2023-05-27T13:05:05;7.72;;;4.40;;
44985;SDS011;30721;49.380;7.736;2023-05-27T13:07:34;6.43;;;4.70;;
44985;SDS011;30721;49.380;7.736;2023-05-27T13:10:00;7.65;;;4.75;;
44985;SDS011;30721;49.380;7.736;2023-05-27T13:12:31;5.57;;;4.15;;
44985;SDS011;30721;49.380;7.736;2023-05-27T13:14:58;6.57;;;4.30;;
44985;SDS011;30721;49.380;7.736;2023-05-27T13:17:25;8.48;;;4.68;;
44985;SDS011;30721;49.380;7.736;2023-05-27T13:19:50;9.82;;;4.78;;
44985;SDS011;30721;49.380;7.736;2023-05-27T13:22:16;6.15;;;4.57;;
44985;SDS011;30721;49.380;7.736;2023-05-27T13:24:41;6.80;;;4.20;;
44985;SDS011;30721;49.380;7.736;2023-05-27T13:27:07;8.27;;;4.40;;
44985;SDS011;30721;49.380;7.736;2023-05-27T13:29:34;8.70;;;5.00;;
44985;SDS011;30721;49.380;7.736;2023-05-27T13:31:59;7.35;;;4.30;;
44985;SDS011;30721;49.380;7.736;2023-05-27T13:34:25;5.82;;;4.28;;
44985;SDS011;30721;49.380;7.736;2023-05-27T13:36:52;7.57;;;4.97;;
44985;SDS011;30721;49.380;7.736;2023-05-27T13:39:17;7.38;;;4.43;;
44985;SDS011;30721;49.380;7.736;2023-05-27T13:41:43;5.57;;;4.70;;
44985;SDS011;30721;49.380;7.736;2023-05-27T13:44:08;6.32;;;4.53;;
44985;SDS011;30721;49.380;7.736;2023-05-27T13:46:34;7.93;;;4.47;;
44985;SDS011;30721;49.380;7.736;2023-05-27T13:48:59;7.93;;;4.35;;
44985;SDS011;30721;49.380;7.736;2023-05-27T13:51:25;8.35;;;4.32;;
44985;SDS011;30721;49.380;7.736;2023-05-27T13:53:50;7.50;;;4.13;;
44985;SDS011;30721;49.380;7.736;2023-05-27T13:56:16;7.93;;;4.43;;
44985;SDS011;30721;49.380;7.736;2023-05-27T13:58:41;7.25;;;4.22;;
44985;SDS011;30721;49.380;7.736;2023-05-27T14:01:07;8.02;;;4.70;;
44985;SDS011;30721;49.380;7.736;2023-05-27T14:03:32;7.45;;;4.53;;
44985;SDS011;30721;49.380;7.736;2023-05-27T14:05:58;9.10;;;4.93;;
44985;SDS011;30721;49.380;7.736;2023-05-27T14:08:23;6.78;;;4.22;;
44985;SDS011;30721;49.380;7.736;2023-05-27T14:10:49;4.75;;;4.10;;
44985;SDS011;30721;49.380;7.736;2023-05-27T14:13:14;9.38;;;4.95;;
44985;SDS011;30721;49.380;7.736;2023-05-27T14:15:40;7.00;;;4.40;;
44985;SDS011;30721;49.380;7.736;2023-05-27T14:18:06;6.38;;;4.30;;
44985;SDS011;30721;49.380;7.736;2023-05-27T14:20:32;7.85;;;4.30;;
44985;SDS011;30721;49.380;7.736;2023-05-27T14:22:58;5.70;;;3.80;;
44985;SDS011;30721;49.380;7.736;2023-05-27T14:25:25;6.18;;;3.75;;
44985;SDS011;30721;49.380;7.736;2023-05-27T14:27:50;6.63;;;3.83;;
44985;SDS011;30721;49.380;7.736;2023-05-27T14:30:16;6.80;;;4.25;;
44985;SDS011;30721;49.380;7.736;2023-05-27T14:32:41;6.28;;;4.05;;
44985;SDS011;30721;49.380;7.736;2023-05-27T14:35:07;6.45;;;3.90;;
44985;SDS011;30721;49.380;7.736;2023-05-27T14:37:33;6.93;;;4.43;;
44985;SDS011;30721;49.380;7.736;2023-05-27T14:39:59;5.10;;;3.92;;
44985;SDS011;30721;49.380;7.736;2023-05-27T14:42:24;6.55;;;3.40;;
44985;SDS011;30721;49.380;7.736;2023-05-27T14:44:50;6.53;;;4.00;;
44985;SDS011;30721;49.380;7.736;2023-05-27T14:47:15;6.85;;;4.00;;
44985;SDS011;30721;49.380;7.736;2023-05-27T14:49:41;6.20;;;3.85;;
44985;SDS011;30721;49.380;7.736;2023-05-27T14:52:06;5.57;;;3.97;;